Time;durP1;ratioP1;P1;durP2;ratioP2;P2;SDS_P1;SDS_P2;PMS_P1;PMS_P2;Temp;Humidity;BMP_temperature;BMP_pressure;BME280_temperature;BME280_humidity;BME280_pressure;Samples;Min_cycle;Max_cycle;Signal;HPM_P1;HPM_P2
2023/03/08 00:02:09;;;;;;;11.07;5.43;;;;;1.00;92593.00;;;;7393957;19;20144;-74
2023/03/08 00:04:37;;;;;;;9.47;5.07;;;;;0.90;92589.00;;;;7393762;19;20588;-74
2023/03/08 00:07:12;;;;;;;7.80;5.23;;;;;0.80;92591.00;;;;7395372;19;20642;-74
2023/03/08 00:09:46;;;;;;;8.67;4.83;;;;;0.70;92586.00;;;;7391836;19;20629;-74
2023/03/08 00:12:21;;;;;;;8.63;5.30;;;;;0.70;92591.00;;;;7394468;19;20124;-74
2023/03/08 00:14:49;;;;;;;8.20;5.33;;;;;0.80;92599.00;;;;7394270;19;20616;-73
2023/03/08 00:17:23;;;;;;;10.23;5.77;;;;;0.80;92594.00;;;;7393213;19;20140;-74
2023/03/08 00:19:57;;;;;;;8.63;5.00;;;;;0.90;92605.00;;;;7389241;19;20617;-73
2023/03/08 00:22:36;;;;;;;9.47;5.33;;;;;1.00;92602.00;;;;7392288;19;20484;-74
2023/03/08 00:25:11;;;;;;;8.03;5.10;;;;;1.00;92607.00;;;;7398209;19;20144;-74
2023/03/08 00:27:38;;;;;;;9.33;5.67;;;;;1.10;92609.00;;;;7399063;19;20580;-74
2023/03/08 00:30:15;;;;;;;8.90;5.90;;;;;1.20;92623.00;;;;7400225;19;20125;-73
2023/03/08 00:32:42;;;;;;;9.90;5.00;;;;;1.20;92608.00;;;;7401497;19;20137;-73
2023/03/08 00:35:18;;;;;;;8.90;5.60;;;;;1.20;92607.00;;;;7400084;19;20162;-73
2023/03/08 00:37:53;;;;;;;8.87;5.37;;;;;1.20;92607.00;;;;7398358;19;20141;-74
2023/03/08 00:40:27;;;;;;;9.50;5.17;;;;;1.20;92588.00;;;;7398234;19;20643;-74
2023/03/08 00:42:54;;;;;;;9.93;5.57;;;;;1.10;92591.00;;;;7398885;19;20630;-73
2023/03/08 00:45:28;;;;;;;8.33;5.00;;;;;0.90;92599.00;;;;7399130;19;20948;-74
2023/03/08 00:48:04;;;;;;;9.57;5.50;;;;;1.00;92584.00;;;;7398336;19;20422;-73
2023/03/08 00:50:37;;;;;;;8.97;5.33;;;;;0.80;92584.00;;;;7400725;19;20478;-74
2023/03/08 00:53:05;;;;;;;10.77;5.60;;;;;0.80;92575.00;;;;7399739;19;20117;-73
2023/03/08 00:55:47;;;;;;;13.33;5.67;;;;;0.80;92582.00;;;;7400477;19;20145;-73
2023/03/08 00:58:16;;;;;;;9.60;5.47;;;;;0.70;92575.00;;;;7396207;19;20997;-73
2023/03/08 01:00:49;;;;;;;8.40;5.40;;;;;0.70;92575.00;;;;7398054;19;20164;-73
2023/03/08 01:03:24;;;;;;;8.40;5.03;;;;;0.50;92562.00;;;;7401287;19;20120;-74
2023/03/08 01:06:03;;;;;;;18.83;5.93;;;;;0.40;92565.00;;;;7399488;19;20132;-73
2023/03/08 01:08:40;;;;;;;9.60;5.20;;;;;0.40;92553.00;;;;7397930;19;20143;-73
2023/03/08 01:11:21;;;;;;;9.27;6.13;;;;;0.40;92559.00;;;;7400276;19;20580;-72
2023/03/08 01:13:54;;;;;;;9.00;5.37;;;;;0.40;92551.00;;;;7400525;19;20127;-72
2023/03/08 01:16:31;;;;;;;13.30;6.33;;;;;0.40;92551.00;;;;7400526;19;20202;-73
2023/03/08 01:18:59;;;;;;;8.83;5.77;;;;;0.30;92539.00;;;;7395263;19;20152;-72
2023/03/08 01:21:33;;;;;;;9.17;5.57;;;;;0.30;92531.00;;;;7398798;19;20135;-75
2023/03/08 01:24:00;;;;;;;12.57;5.63;;;;;0.30;92535.00;;;;7401957;19;20713;-72
2023/03/08 01:26:35;;;;;;;7.57;5.10;;;;;0.30;92519.00;;;;7399949;19;20145;-75
2023/03/08 01:29:08;;;;;;;8.17;5.67;;;;;0.10;92522.00;;;;7395384;19;20665;-75
2023/03/08 01:31:43;;;;;;;10.63;5.43;;;;;0.10;92518.00;;;;7398750;19;20531;-72
2023/03/08 01:34:11;;;;;;;9.17;5.43;;;;;-0.10;92515.00;;;;7399025;19;20133;-74
2023/03/08 01:36:46;;;;;;;10.53;5.83;;;;;0.00;92524.00;;;;7398895;19;21080;-73
2023/03/08 01:39:20;;;;;;;11.70;6.27;;;;;0.00;92513.00;;;;7396344;19;20591;-73
2023/03/08 01:41:48;;;;;;;11.87;5.33;;;;;-0.20;92502.00;;;;7398106;19;20133;-72
2023/03/08 01:44:22;;;;;;;8.10;5.23;;;;;-0.10;92509.00;;;;7400198;19;20483;-72
2023/03/08 01:46:56;;;;;;;11.40;5.30;;;;;-0.30;92502.00;;;;7397513;19;20180;-72
2023/03/08 01:49:32;;;;;;;9.37;5.53;;;;;-0.60;92498.00;;;;7396940;19;20602;-73
2023/03/08 01:52:17;;;;;;;9.63;6.00;;;;;-0.80;92496.00;;;;7398898;19;20143;-74
2023/03/08 01:54:58;;;;;;;9.13;6.17;;;;;-1.00;92493.00;;;;7399965;19;20133;-72
2023/03/08 01:57:39;;;;;;;11.60;6.87;;;;;-1.30;92493.00;;;;7397621;19;20154;-72
2023/03/08 02:00:08;;;;;;;14.00;7.33;;;;;-1.10;92503.00;;;;7392934;19;20607;-74
2023/03/08 02:02:59;;;;;;;14.90;7.40;;;;;-1.10;92494.00;;;;7392395;19;20188;-78
2023/03/08 02:05:41;;;;;;;13.50;7.77;;;;;-1.10;92497.00;;;;7395884;19;20542;-75
2023/03/08 02:08:15;;;;;;;18.43;8.80;;;;;-1.10;92494.00;;;;7394086;19;20133;-75
2023/03/08 02:10:43;;;;;;;15.33;7.87;;;;;-1.00;92497.00;;;;7398415;19;20142;-81
2023/03/08 02:13:11;;;;;;;12.87;7.90;;;;;-0.90;92490.00;;;;7399771;19;20125;-76
2023/03/08 02:15:45;;;;;;;10.50;6.57;;;;;-0.90;92484.00;;;;7399143;19;20542;-76
2023/03/08 02:18:13;;;;;;;14.47;7.57;;;;;-1.00;92483.00;;;;7395692;19;20481;-75
2023/03/08 02:20:46;;;;;;;12.50;7.57;;;;;-0.90;92485.00;;;;7397159;19;20721;-76
2023/03/08 02:23:16;;;;;;;14.43;7.70;;;;;-0.70;92486.00;;;;7397556;19;20508;-76
2023/03/08 02:25:55;;;;;;;13.07;7.80;;;;;-0.40;92468.00;;;;7397584;19;20741;-75
2023/03/08 02:28:29;;;;;;;16.87;8.27;;;;;-0.30;92464.00;;;;7395527;19;20475;-75
2023/03/08 02:30:57;;;;;;;12.37;8.23;;;;;-0.20;92475.00;;;;7396783;19;20454;-76
2023/03/08 02:33:31;;;;;;;13.70;7.67;;;;;-0.20;92444.00;;;;7398147;19;20631;-76
2023/03/08 02:36:07;;;;;;;13.40;7.70;;;;;0.00;92460.00;;;;7397458;19;20132;-75
2023/03/08 02:38:40;;;;;;;13.13;7.23;;;;;0.00;92443.00;;;;7396661;19;20604;-76
2023/03/08 02:41:14;;;;;;;10.77;6.53;;;;;0.00;92453.00;;;;7396946;19;20133;-75
2023/03/08 02:43:48;;;;;;;11.07;7.30;;;;;0.20;92445.00;;;;7395942;19;20475;-75
2023/03/08 02:46:22;;;;;;;13.00;7.57;;;;;0.20;92455.00;;;;7397060;19;20151;-76
2023/03/08 02:48:56;;;;;;;12.53;7.50;;;;;0.10;92437.00;;;;7394609;19;20137;-76
2023/03/08 02:51:31;;;;;;;12.10;6.97;;;;;0.20;92433.00;;;;7396991;19;20121;-75
2023/03/08 02:54:05;;;;;;;13.27;7.60;;;;;0.20;92433.00;;;;7394174;19;20522;-76
2023/03/08 02:56:42;;;;;;;11.60;6.50;;;;;0.20;92410.00;;;;7396686;19;20125;-76
2023/03/08 02:59:10;;;;;;;12.63;7.50;;;;;0.30;92412.00;;;;7393550;19;20611;-76
2023/03/08 03:01:44;;;;;;;13.77;7.33;;;;;0.20;92413.00;;;;7395125;19;20201;-75
2023/03/08 03:04:30;;;;;;;14.53;7.03;;;;;0.10;92405.00;;;;7392161;19;20136;-75
2023/03/08 03:07:03;;;;;;;11.03;6.77;;;;;0.10;92397.00;;;;7396177;19;20135;-77
2023/03/08 03:09:37;;;;;;;12.73;6.80;;;;;0.00;92388.00;;;;7393345;19;20220;-76
2023/03/08 03:12:11;;;;;;;17.43;7.87;;;;;-0.10;92391.00;;;;7394340;19;20615;-76
2023/03/08 03:14:45;;;;;;;11.03;7.07;;;;;-0.30;92383.00;;;;7388738;19;20144;-75
2023/03/08 03:17:19;;;;;;;13.53;7.60;;;;;-0.30;92387.00;;;;7395540;19;20129;-75
2023/03/08 03:19:47;;;;;;;13.47;7.67;;;;;-0.40;92382.00;;;;7392137;19;20580;-75
2023/03/08 03:22:24;;;;;;;14.27;7.57;;;;;-0.50;92377.00;;;;7391836;19;20148;-77
2023/03/08 03:24:58;;;;;;;13.50;6.83;;;;;-0.60;92374.00;;;;7393262;19;20189;-75
2023/03/08 03:27:25;;;;;;;13.57;8.10;;;;;-0.50;92364.00;;;;7393960;19;20140;-75
2023/03/08 03:29:59;;;;;;;11.90;6.60;;;;;-0.40;92360.00;;;;7394121;19;20136;-74
2023/03/08 03:32:27;;;;;;;13.27;7.67;;;;;-0.20;92345.00;;;;7397918;19;20133;-74
2023/03/08 03:35:02;;;;;;;12.37;7.53;;;;;-0.30;92338.00;;;;7393238;19;20195;-77
2023/03/08 03:37:29;;;;;;;14.03;7.53;;;;;-0.20;92346.00;;;;7394943;19;20541;-75
2023/03/08 03:40:04;;;;;;;12.83;6.90;;;;;-0.40;92346.00;;;;7391936;19;20122;-74
2023/03/08 03:42:39;;;;;;;12.93;7.60;;;;;-0.30;92358.00;;;;7394772;19;20599;-75
2023/03/08 03:45:13;;;;;;;10.47;6.77;;;;;-0.20;92361.00;;;;7395749;19;20598;-76
2023/03/08 03:47:47;;;;;;;12.83;6.93;;;;;-0.30;92367.00;;;;7395115;19;20136;-76
2023/03/08 03:50:21;;;;;;;11.00;6.80;;;;;-0.30;92347.00;;;;7393210;19;20584;-76
2023/03/08 03:52:55;;;;;;;12.60;6.90;;;;;-0.20;92348.00;;;;7393994;19;20551;-76
2023/03/08 03:55:29;;;;;;;12.77;6.70;;;;;-0.30;92339.00;;;;7395616;19;20139;-76
2023/03/08 03:57:56;;;;;;;12.93;6.90;;;;;-0.20;92345.00;;;;7394397;19;20162;-75
2023/03/08 04:00:30;;;;;;;17.07;7.13;;;;;-0.20;92344.00;;;;7397298;19;20164;-75
2023/03/08 04:03:04;;;;;;;13.90;7.60;;;;;-0.10;92338.00;;;;7401875;19;20919;-75
2023/03/08 04:05:39;;;;;;;10.70;7.20;;;;;-0.10;92333.00;;;;7404558;19;20481;-75
2023/03/08 04:08:12;;;;;;;11.07;6.87;;;;;0.10;92324.00;;;;7400983;19;20133;-76
2023/03/08 04:10:46;;;;;;;11.33;6.07;;;;;0.10;92332.00;;;;7403431;19;20157;-75
2023/03/08 04:13:20;;;;;;;12.80;7.80;;;;;0.10;92333.00;;;;7401805;19;20121;-75
2023/03/08 04:15:48;;;;;;;11.63;6.87;;;;;0.10;92329.00;;;;7402388;19;20145;-75
2023/03/08 04:18:22;;;;;;;12.03;7.50;;;;;0.10;92339.00;;;;7403450;19;20121;-76
2023/03/08 04:20:50;;;;;;;10.20;5.83;;;;;0.30;92327.00;;;;7400491;19;20141;-75
2023/03/08 04:23:24;;;;;;;13.87;6.67;;;;;0.20;92327.00;;;;7401866;19;20154;-75
2023/03/08 04:25:52;;;;;;;12.10;6.33;;;;;0.30;92324.00;;;;7401680;19;20743;-77
2023/03/08 04:28:26;;;;;;;9.03;6.07;;;;;0.30;92303.00;;;;7399045;19;20591;-75
2023/03/08 04:31:39;;;;;;;13.27;6.53;;;;;0.50;92294.00;;;;7401284;19;20140;-78
2023/03/08 04:34:13;;;;;;;10.50;6.30;;;;;0.70;92277.00;;;;7397090;19;20194;-76
2023/03/08 04:36:47;;;;;;;11.87;6.47;;;;;0.70;92284.00;;;;7398982;19;20138;-74
2023/03/08 04:39:21;;;;;;;8.83;5.77;;;;;0.80;92281.00;;;;7398250;19;20139;-76
2023/03/08 04:41:48;;;;;;;10.93;5.63;;;;;0.90;92272.00;;;;7399274;19;20182;-76
2023/03/08 04:44:22;;;;;;;9.87;5.63;;;;;1.00;92275.00;;;;7401154;19;20132;-75
2023/03/08 04:46:56;;;;;;;8.43;5.87;;;;;0.90;92186.00;;;;7399388;19;20499;-76
2023/03/08 04:49:30;;;;;;;8.13;5.47;;;;;0.90;92262.00;;;;7397986;19;20470;-76
2023/03/08 04:52:05;;;;;;;9.27;6.03;;;;;1.00;92260.00;;;;7400561;19;20129;-76
2023/03/08 04:54:38;;;;;;;9.20;5.70;;;;;1.00;92261.00;;;;7401128;19;20125;-77
2023/03/08 04:57:07;;;;;;;11.00;5.67;;;;;1.10;92257.00;;;;7400050;19;20499;-76
2023/03/08 04:59:42;;;;;;;9.90;5.43;;;;;1.10;92262.00;;;;7396617;19;20144;-76
2023/03/08 05:02:09;;;;;;;10.83;6.33;;;;;1.10;92255.00;;;;7396182;19;20169;-75
2023/03/08 05:04:50;;;;;;;11.20;6.47;;;;;1.20;92262.00;;;;7398132;19;20137;-75
2023/03/08 05:07:24;;;;;;;9.67;6.00;;;;;1.20;92263.00;;;;7399990;19;20168;-75
2023/03/08 05:09:58;;;;;;;12.90;6.33;;;;;1.30;92257.00;;;;7395149;19;20129;-76
2023/03/08 05:12:32;;;;;;;9.87;6.30;;;;;1.30;92255.00;;;;7398044;19;20149;-75
2023/03/08 05:15:06;;;;;;;10.83;5.90;;;;;1.40;92248.00;;;;7400211;19;20152;-74
2023/03/08 05:17:40;;;;;;;10.73;6.20;;;;;1.40;92244.00;;;;7398880;19;20471;-75
2023/03/08 05:20:15;;;;;;;9.17;5.87;;;;;1.30;92236.00;;;;7395854;19;20189;-76
2023/03/08 05:22:42;;;;;;;10.53;6.60;;;;;1.50;92234.00;;;;7397678;19;20459;-75
2023/03/08 05:25:25;;;;;;;10.17;5.47;;;;;1.40;92237.00;;;;7400645;19;20150;-76
2023/03/08 05:28:00;;;;;;;9.07;5.87;;;;;1.50;92234.00;;;;7396981;19;20503;-76
2023/03/08 05:30:34;;;;;;;9.67;6.10;;;;;1.50;92239.00;;;;7397356;19;20155;-75
2023/03/08 05:33:02;;;;;;;11.40;5.63;;;;;1.50;92226.00;;;;7397845;19;20670;-77
2023/03/08 05:35:36;;;;;;;8.37;5.80;;;;;1.60;92226.00;;;;7397545;19;20543;-75
2023/03/08 05:38:10;;;;;;;9.53;5.87;;;;;1.70;92229.00;;;;7397418;19;20148;-75
2023/03/08 05:40:44;;;;;;;8.57;6.07;;;;;1.70;92225.00;;;;7395033;19;20145;-75
2023/03/08 05:43:11;;;;;;;8.83;5.27;;;;;1.70;92213.00;;;;7397329;19;20132;-74
2023/03/08 05:46:16;;;;;;;11.60;6.93;;;;;1.70;92232.00;;;;7399242;19;20565;-73
2023/03/08 05:48:44;;;;;;;8.80;5.83;;;;;1.70;92228.00;;;;7397036;19;20141;-74
2023/03/08 05:51:19;;;;;;;11.40;6.20;;;;;1.70;92219.00;;;;7396537;19;20144;-75
2023/03/08 05:53:52;;;;;;;8.00;5.33;;;;;1.70;92233.00;;;;7396774;19;20644;-75
2023/03/08 05:56:27;;;;;;;7.97;5.80;;;;;1.80;92232.00;;;;7399001;19;20555;-76
2023/03/08 05:58:54;;;;;;;11.97;6.30;;;;;1.90;92223.00;;;;7395253;19;20142;-76
2023/03/08 06:01:28;;;;;;;7.93;5.53;;;;;1.90;92216.00;;;;7393712;19;20135;-75
2023/03/08 06:04:10;;;;;;;9.03;5.50;;;;;1.80;92213.00;;;;7393218;19;20547;-75
2023/03/08 06:10:19;;;;;;;9.33;5.47;;;;;1.70;92203.00;;;;7392269;19;20189;-75
2023/03/08 06:12:53;;;;;;;14.47;5.87;;;;;1.80;92211.00;;;;7397620;19;20160;-75
2023/03/08 06:15:20;;;;;;;9.33;6.37;;;;;1.90;92205.00;;;;7391161;19;20170;-74
2023/03/08 06:17:59;;;;;;;11.87;5.87;;;;;1.90;92210.00;;;;7396829;19;20149;-74
2023/03/08 06:20:27;;;;;;;9.13;5.60;;;;;1.90;92198.00;;;;7395742;19;20229;-75
2023/03/08 06:23:00;;;;;;;9.00;5.33;;;;;1.80;92195.00;;;;7397854;19;20482;-76
2023/03/08 06:25:28;;;;;;;10.47;6.10;;;;;1.70;92185.00;;;;7400310;19;20222;-75
2023/03/08 06:28:03;;;;;;;10.77;5.87;;;;;1.60;92184.00;;;;7399913;19;20157;-75
2023/03/08 06:30:30;;;;;;;9.20;4.97;;;;;1.60;92181.00;;;;7401625;19;20129;-76
2023/03/08 06:33:04;;;;;;;9.23;6.20;;;;;1.60;92177.00;;;;7400356;19;20141;-80
2023/03/08 06:35:39;;;;;;;9.60;5.73;;;;;1.60;92190.00;;;;7400155;19;20144;-75
2023/03/08 06:38:06;;;;;;;8.93;5.50;;;;;1.60;92188.00;;;;7400044;19;20584;-75
2023/03/08 06:40:40;;;;;;;10.13;5.97;;;;;1.60;92184.00;;;;7398325;19;20471;-74
2023/03/08 06:43:08;;;;;;;9.07;5.93;;;;;1.50;92182.00;;;;7397572;19;20172;-75
2023/03/08 06:45:42;;;;;;;8.03;5.37;;;;;1.50;92193.00;;;;7399438;19;20192;-75
2023/03/08 06:48:10;;;;;;;9.03;5.73;;;;;1.60;92190.00;;;;7399904;19;20554;-75
2023/03/08 06:50:45;;;;;;;8.40;5.00;;;;;1.50;92179.00;;;;7399572;19;20144;-75
2023/03/08 06:53:18;;;;;;;7.03;5.20;;;;;1.30;92177.00;;;;7400627;19;20133;-73
2023/03/08 06:55:52;;;;;;;10.97;6.03;;;;;1.40;92173.00;;;;7394743;19;20133;-74
2023/03/08 06:58:20;;;;;;;8.77;5.60;;;;;1.30;92168.00;;;;7398472;19;20157;-75
2023/03/08 07:01:03;;;;;;;8.30;5.03;;;;;1.30;92167.00;;;;7394651;19;20147;-74
2023/03/08 07:03:37;;;;;;;8.63;5.70;;;;;1.20;92161.00;;;;7397926;19;20187;-76
2023/03/08 07:06:11;;;;;;;7.67;5.10;;;;;1.20;92163.00;;;;7398727;19;20136;-74
2023/03/08 07:08:45;;;;;;;8.30;5.60;;;;;1.40;92158.00;;;;7398766;19;20212;-75
2023/03/08 07:11:19;;;;;;;7.73;5.23;;;;;1.20;92154.00;;;;7397785;19;20133;-74
2023/03/08 07:13:53;;;;;;;6.97;4.60;;;;;1.30;92148.00;;;;7397988;19;20139;-74
2023/03/08 07:16:27;;;;;;;7.57;5.13;;;;;1.20;92141.00;;;;7396536;19;20603;-75
2023/03/08 07:19:02;;;;;;;7.33;4.83;;;;;1.20;92148.00;;;;7396568;19;20142;-75
2023/03/08 07:21:30;;;;;;;7.33;4.77;;;;;1.20;92142.00;;;;7396667;19;20156;-75
2023/03/08 07:24:04;;;;;;;7.23;4.87;;;;;1.20;92135.00;;;;7397230;19;20145;-75
2023/03/08 07:26:31;;;;;;;8.87;5.20;;;;;1.10;92130.00;;;;7396737;19;20168;-75
2023/03/08 07:29:06;;;;;;;8.60;5.47;;;;;1.20;92129.00;;;;7395516;19;20153;-74
2023/03/08 07:31:35;;;;;;;8.50;5.77;;;;;1.00;92129.00;;;;7396806;19;20160;-73
2023/03/08 07:34:08;;;;;;;8.63;5.37;;;;;0.90;92122.00;;;;7398083;19;20597;-73
2023/03/08 07:36:42;;;;;;;9.20;5.97;;;;;0.90;92118.00;;;;7398321;19;20160;-73
2023/03/08 07:39:16;;;;;;;8.73;5.90;;;;;0.90;92117.00;;;;7397543;19;20618;-74
2023/03/08 07:41:44;;;;;;;8.47;5.83;;;;;1.00;92106.00;;;;7394652;19;20162;-72
2023/03/08 07:44:18;;;;;;;10.33;6.10;;;;;0.90;92095.00;;;;7397736;19;20157;-73
2023/03/08 07:46:52;;;;;;;11.20;6.30;;;;;1.00;92096.00;;;;7398063;19;20132;-73
2023/03/08 07:49:20;;;;;;;13.03;6.90;;;;;1.10;92092.00;;;;7395591;19;20109;-74
2023/03/08 07:51:54;;;;;;;9.70;6.10;;;;;1.30;92072.00;;;;7396645;19;20148;-73
2023/03/08 07:54:22;;;;;;;12.53;6.67;;;;;1.10;92057.00;;;;7398757;19;20609;-73
2023/03/08 07:56:56;;;;;;;10.43;6.77;;;;;1.30;92053.00;;;;7398175;19;20132;-73
2023/03/08 07:59:24;;;;;;;12.30;7.50;;;;;1.40;92053.00;;;;7395129;19;20159;-74
2023/03/08 08:01:59;;;;;;;15.00;8.07;;;;;1.40;92056.00;;;;7395285;19;20203;-74
2023/03/08 08:04:33;;;;;;;10.33;7.30;;;;;1.40;92052.00;;;;7394550;19;20173;-73
2023/03/08 08:07:15;;;;;;;11.73;7.63;;;;;1.40;92056.00;;;;7396331;19;20140;-74
2023/03/08 08:09:43;;;;;;;12.10;7.77;;;;;1.20;92048.00;;;;7395090;19;20156;-74
2023/03/08 08:12:17;;;;;;;13.43;8.53;;;;;0.80;92040.00;;;;7396283;19;20466;-74
2023/03/08 08:14:45;;;;;;;12.63;8.13;;;;;0.90;92037.00;;;;7396599;19;20205;-79
2023/03/08 08:17:20;;;;;;;13.37;8.60;;;;;0.80;92032.00;;;;7396219;19;20132;-73
2023/03/08 08:19:54;;;;;;;12.73;8.40;;;;;0.90;92027.00;;;;7393922;19;20173;-73
2023/03/08 08:22:28;;;;;;;14.37;9.13;;;;;0.90;92025.00;;;;7394298;19;20523;-73
2023/03/08 08:24:56;;;;;;;16.07;9.57;;;;;0.90;92020.00;;;;7396060;19;20503;-73
2023/03/08 08:27:31;;;;;;;14.13;9.10;;;;;0.80;92005.00;;;;7396401;19;20133;-73
2023/03/08 08:30:06;;;;;;;14.17;8.53;;;;;1.00;92011.00;;;;7394765;19;20188;-72
2023/03/08 08:32:40;;;;;;;14.90;9.43;;;;;1.00;92003.00;;;;7396074;19;20163;-73
2023/03/08 08:35:08;;;;;;;17.67;9.63;;;;;1.00;92003.00;;;;7395799;19;20177;-72
2023/03/08 08:37:36;;;;;;;18.93;9.50;;;;;1.10;92000.00;;;;7394869;19;20156;-72
2023/03/08 08:40:11;;;;;;;14.23;9.20;;;;;1.30;91983.00;;;;7394588;19;20144;-73
2023/03/08 08:42:38;;;;;;;15.43;9.17;;;;;1.30;91982.00;;;;7393578;19;20502;-72
2023/03/08 08:45:12;;;;;;;14.20;8.80;;;;;1.10;91996.00;;;;7397399;19;20145;-71
2023/03/08 08:47:40;;;;;;;16.13;9.20;;;;;1.30;91974.00;;;;7403955;19;20129;-73
2023/03/08 08:50:15;;;;;;;13.57;9.50;;;;;1.40;91967.00;;;;7402576;19;20136;-73
2023/03/08 08:52:49;;;;;;;15.47;9.10;;;;;1.20;91980.00;;;;7404645;19;20136;-73
2023/03/08 08:55:17;;;;;;;17.00;9.13;;;;;1.10;91977.00;;;;7398876;19;20458;-73
2023/03/08 08:57:51;;;;;;;13.87;9.07;;;;;1.10;91977.00;;;;7395677;19;20142;-74
2023/03/08 09:00:19;;;;;;;13.97;9.30;;;;;1.10;91974.00;;;;7403021;19;20666;-73
2023/03/08 09:02:47;;;;;;;12.83;8.30;;;;;1.10;91964.00;;;;7402171;19;20476;-74
2023/03/08 09:05:28;;;;;;;14.67;9.57;;;;;1.10;91961.00;;;;7401822;19;20148;-74
2023/03/08 09:08:02;;;;;;;12.73;8.63;;;;;1.10;91958.00;;;;7401985;19;20148;-73
2023/03/08 09:10:31;;;;;;;13.20;8.73;;;;;1.10;91968.00;;;;7401439;19;20136;-74
2023/03/08 09:13:06;;;;;;;13.27;9.03;;;;;1.40;91962.00;;;;7402825;19;20117;-73
2023/03/08 09:15:35;;;;;;;12.60;8.90;;;;;1.30;91973.00;;;;7403224;19;20128;-74
2023/03/08 09:18:09;;;;;;;13.37;8.80;;;;;1.20;91965.00;;;;7401103;19;20159;-75
2023/03/08 09:20:43;;;;;;;13.20;9.10;;;;;1.30;91954.00;;;;7401640;19;20141;-74
2023/03/08 09:23:19;;;;;;;12.87;8.30;;;;;1.30;91942.00;;;;7402182;19;20540;-75
2023/03/08 09:25:57;;;;;;;13.33;8.57;;;;;1.40;91945.00;;;;7398434;19;20151;-75
2023/03/08 09:28:35;;;;;;;13.43;8.97;;;;;1.60;91935.00;;;;7402915;19;20133;-74
2023/03/08 09:31:13;;;;;;;11.97;7.73;;;;;1.90;91928.00;;;;7401733;19;20129;-75
2023/03/08 09:33:53;;;;;;;12.60;6.40;;;;;2.10;91932.00;;;;7402582;19;20129;-75
2023/03/08 09:36:20;;;;;;;9.83;6.57;;;;;2.40;91909.00;;;;7404295;19;20125;-74
2023/03/08 09:38:55;;;;;;;8.73;5.60;;;;;2.80;91931.00;;;;7401652;19;20147;-75
2023/03/08 09:41:27;;;;;;;5.60;3.50;;;;;3.10;91918.00;;;;7401100;19;20144;-73
2023/03/08 09:44:23;;;;;;;5.47;3.40;;;;;3.40;91905.00;;;;7403785;19;20176;-73
2023/03/08 09:47:12;;;;;;;5.53;3.20;;;;;3.70;91904.00;;;;7402699;19;20484;-73
2023/03/08 09:49:50;;;;;;;4.37;2.47;;;;;3.90;91913.00;;;;7400997;19;20545;-72
2023/03/08 09:52:28;;;;;;;4.03;2.30;;;;;4.00;91911.00;;;;7403131;19;20125;-73
2023/03/08 09:55:05;;;;;;;2.23;1.67;;;;;4.10;91914.00;;;;7403388;19;20137;-73
2023/03/08 09:57:40;;;;;;;3.67;1.83;;;;;4.00;91918.00;;;;7401770;19;20168;-74
2023/03/08 10:00:28;;;;;;;2.60;1.87;;;;;4.10;91908.00;;;;7402300;19;20141;-73
2023/03/08 10:03:16;;;;;;;2.23;1.50;;;;;4.20;91916.00;;;;7398728;19;20538;-71
2023/03/08 10:05:57;;;;;;;1.97;1.77;;;;;4.30;91905.00;;;;7400444;19;20508;-73
2023/03/08 10:08:45;;;;;;;3.23;1.90;;;;;4.40;91907.00;;;;7398856;19;20491;-73
2023/03/08 10:11:52;;;;;;;2.93;1.60;;;;;4.30;91906.00;;;;7400960;19;20484;-75
2023/03/08 10:14:34;;;;;;;2.47;1.60;;;;;4.40;91905.00;;;;7401753;19;20170;-73
2023/03/08 10:17:10;;;;;;;2.03;1.43;;;;;4.60;91897.00;;;;7401149;19;20142;-73
2023/03/08 10:20:05;;;;;;;1.97;1.43;;;;;4.90;91902.00;;;;7399668;19;20157;-74
2023/03/08 10:22:41;;;;;;;1.70;1.40;;;;;4.80;91908.00;;;;7398831;19;20140;-73
2023/03/08 10:25:27;;;;;;;2.20;1.70;;;;;4.50;91895.00;;;;7397204;19;20156;-74
2023/03/08 10:28:10;;;;;;;1.93;1.50;;;;;4.70;91916.00;;;;7399942;19;20216;-73
2023/03/08 10:30:59;;;;;;;1.97;1.37;;;;;4.90;91880.00;;;;7400560;19;20153;-74
2023/03/08 10:33:35;;;;;;;2.43;1.67;;;;;5.20;91898.00;;;;7399967;19;20607;-74
2023/03/08 10:36:19;;;;;;;1.83;1.33;;;;;5.30;91891.00;;;;7399657;19;20171;-75
2023/03/08 10:39:07;;;;;;;1.93;1.37;;;;;5.30;91898.00;;;;7401443;19;20149;-74
2023/03/08 10:41:47;;;;;;;3.37;1.60;;;;;5.50;91875.00;;;;7399125;19;20136;-73
2023/03/08 10:44:35;;;;;;;1.63;1.50;;;;;5.70;91876.00;;;;7399318;19;20707;-75
2023/03/08 10:47:34;;;;;;;1.50;1.13;;;;;5.80;91891.00;;;;7400079;19;20551;-73
2023/03/08 10:50:19;;;;;;;1.97;1.20;;;;;5.70;91906.00;;;;7397588;19;20161;-74
2023/03/08 10:52:49;;;;;;;1.50;1.40;;;;;5.70;91897.00;;;;7397276;19;20132;-74
2023/03/08 10:55:28;;;;;;;1.87;1.30;;;;;5.70;91906.00;;;;7399000;19;20795;-78
2023/03/08 10:58:05;;;;;;;1.80;1.40;;;;;5.90;91894.00;;;;7397847;19;20155;-77
2023/03/08 11:00:43;;;;;;;4.23;1.40;;;;;5.90;91907.00;;;;7398394;19;20164;-75
2023/03/08 11:03:22;;;;;;;1.60;1.13;;;;;5.80;91927.00;;;;7395130;19;20179;-73
2023/03/08 11:06:00;;;;;;;1.73;1.20;;;;;5.50;91916.00;;;;7398860;19;20144;-73
2023/03/08 11:08:37;;;;;;;1.37;1.27;;;;;5.60;91933.00;;;;7397446;19;20136;-73
2023/03/08 11:11:13;;;;;;;1.83;1.13;;;;;5.30;91941.00;;;;7397274;19;20129;-74
2023/03/08 11:13:46;;;;;;;1.73;1.40;;;;;5.30;91943.00;;;;7395794;19;20137;-75
2023/03/08 11:16:58;;;;;;;1.63;1.50;;;;;5.30;91936.00;;;;7397438;19;20155;-75
2023/03/08 11:19:52;;;;;;;2.33;1.37;;;;;5.50;91941.00;;;;7397293;19;20136;-74
2023/03/08 11:22:39;;;;;;;1.33;1.23;;;;;5.50;91941.00;;;;7395426;19;20224;-74
2023/03/08 11:25:24;;;;;;;1.80;1.57;;;;;5.50;91939.00;;;;7399241;19;20141;-75
2023/03/08 11:28:15;;;;;;;2.40;1.53;;;;;5.60;91942.00;;;;7392436;19;20164;-77
2023/03/08 11:31:13;;;;;;;3.20;1.43;;;;;5.60;91944.00;;;;7396074;19;20152;-73
2023/03/08 11:34:13;;;;;;;2.90;1.63;;;;;5.80;91940.00;;;;7398689;19;20132;-75
2023/03/08 11:37:06;;;;;;;1.57;1.40;;;;;5.80;91939.00;;;;7397201;19;20133;-74
2023/03/08 11:39:46;;;;;;;3.10;1.70;;;;;5.80;91950.00;;;;7397124;19;20555;-74
2023/03/08 11:42:59;;;;;;;2.13;1.33;;;;;5.90;91943.00;;;;7396599;19;20153;-78
2023/03/08 11:45:35;;;;;;;1.93;1.20;;;;;6.10;91956.00;;;;7395040;19;20125;-74
2023/03/08 11:48:17;;;;;;;1.80;1.40;;;;;6.20;91972.00;;;;7395732;19;20623;-74
2023/03/08 11:51:26;;;;;;;1.67;1.50;;;;;6.20;91963.00;;;;7398961;19;20136;-75
2023/03/08 11:54:13;;;;;;;2.13;1.40;;;;;6.30;91966.00;;;;7396606;19;20120;-76
2023/03/08 11:56:55;;;;;;;1.60;1.40;;;;;6.50;91945.00;;;;7396668;19;20485;-75
2023/03/08 11:59:36;;;;;;;2.10;1.50;;;;;6.30;91951.00;;;;7396573;19;20151;-75
2023/03/08 12:02:07;;;;;;;2.20;1.70;;;;;6.40;91952.00;;;;7393209;19;20148;-75
2023/03/08 12:05:04;;;;;;;1.67;1.33;;;;;6.60;91948.00;;;;7394582;19;20183;-74
2023/03/08 12:07:49;;;;;;;1.80;1.40;;;;;6.50;91953.00;;;;7398436;19;20125;-73
2023/03/08 12:10:27;;;;;;;1.57;1.30;;;;;6.60;91956.00;;;;7396660;19;20602;-77
2023/03/08 12:13:10;;;;;;;4.00;1.40;;;;;6.60;91967.00;;;;7396192;19;20504;-75
2023/03/08 12:15:52;;;;;;;1.90;1.70;;;;;6.60;91989.00;;;;7397276;19;20133;-76
2023/03/08 12:18:44;;;;;;;2.70;1.60;;;;;6.50;91967.00;;;;7397233;19;20159;-73
2023/03/08 12:21:15;;;;;;;1.93;1.33;;;;;6.50;91993.00;;;;7400716;19;20212;-75
2023/03/08 12:24:13;;;;;;;1.77;1.37;;;;;6.60;91978.00;;;;7406150;19;20129;-75
2023/03/08 12:26:57;;;;;;;3.93;1.53;;;;;6.50;91987.00;;;;7401181;19;20135;-76
2023/03/08 12:29:52;;;;;;;2.20;1.53;;;;;6.80;91972.00;;;;7403352;19;20152;-76
2023/03/08 12:32:27;;;;;;;1.67;1.47;;;;;6.80;91978.00;;;;7404129;19;20150;-77
2023/03/08 12:35:22;;;;;;;1.97;1.57;;;;;7.10;91987.00;;;;7405495;19;20129;-74
2023/03/08 12:38:04;;;;;;;1.93;1.40;;;;;7.20;91977.00;;;;7403487;19;20139;-75
2023/03/08 12:40:43;;;;;;;1.47;1.30;;;;;7.30;91969.00;;;;7403745;19;20131;-78
2023/03/08 12:43:23;;;;;;;1.50;1.17;;;;;7.50;91979.00;;;;7401160;19;20128;-76
2023/03/08 12:46:00;;;;;;;2.20;1.63;;;;;7.50;91971.00;;;;7402848;19;20144;-76
2023/03/08 12:48:43;;;;;;;1.30;1.20;;;;;7.60;91953.00;;;;7405087;19;20159;-74
2023/03/08 12:51:11;;;;;;;1.17;1.07;;;;;7.50;91983.00;;;;7404175;19;20156;-78
2023/03/08 12:53:48;;;;;;;1.30;1.20;;;;;7.50;91985.00;;;;7406028;19;20153;-77
2023/03/08 12:56:30;;;;;;;2.50;1.00;;;;;7.50;91989.00;;;;7403719;19;20511;-77
2023/03/08 12:59:13;;;;;;;1.57;1.40;;;;;7.60;91996.00;;;;7403055;19;20738;-78
2023/03/08 13:02:01;;;;;;;1.10;1.00;;;;;7.30;91993.00;;;;7403093;19;20140;-74
2023/03/08 13:04:44;;;;;;;1.07;1.00;;;;;7.00;91990.00;;;;7398828;19;20248;-78
2023/03/08 13:07:26;;;;;;;2.33;1.13;;;;;6.90;91993.00;;;;7402345;19;20174;-77
2023/03/08 13:10:23;;;;;;;1.77;1.23;;;;;6.80;91994.00;;;;7404844;19;20156;-74